« Back
NWS Peachtree City, Ga » Text Product » AHN Terminal Aerodrome Forecast


Printer-friendly Version
Current Version              Previous Versions:   1  2  3  4  5  6  7  8  9  

Terminal Aerodrome Forecast

197
FTAK31 PAJN 212300
TAFAHN
TAF
PAHN 212326Z 2200/2224 31009KT P6SM FEW050 OVC080
     FM220300 31008KT P6SM VCSH BKN050 OVC100
     FM220700 33005KT P6SM -RA BKN040 OVC080
      AMD LTD TO CLD VIS AND WIND=

USA.gov is the U.S. government's official web portal to all federal, state and local government web resources and services.